createdAt,value
2023-11-07T00:09:01.660Z,3.00
2023-11-07T00:29:24.153Z,3.90
2023-11-07T00:39:26.833Z,6.40
2023-11-07T00:49:29.204Z,3.90
2023-11-07T00:59:31.009Z,4.30
2023-11-07T01:09:32.842Z,4.00
2023-11-07T01:19:34.842Z,4.10
2023-11-07T01:29:37.084Z,4.80
2023-11-07T01:39:38.859Z,3.70
2023-11-07T01:49:40.905Z,4.80
2023-11-07T01:59:42.811Z,5.00
2023-11-07T02:09:44.701Z,4.20
2023-11-07T02:19:46.582Z,5.00
2023-11-07T02:29:49.069Z,3.90
2023-11-07T02:39:50.812Z,3.30
2023-11-07T02:49:53.239Z,7.40
2023-11-07T02:59:55.133Z,4.00
2023-11-07T03:09:57.124Z,2.60
2023-11-07T03:19:58.942Z,4.70
2023-11-07T03:30:00.803Z,5.30
2023-11-07T03:40:04.673Z,3.50
2023-11-07T03:50:07.227Z,3.40
2023-11-07T04:00:11.611Z,3.90
2023-11-07T04:10:14.316Z,3.60
2023-11-07T04:20:17.564Z,5.30
2023-11-07T04:30:19.309Z,4.70
2023-11-07T04:40:21.001Z,5.20
2023-11-07T04:50:22.829Z,5.10
2023-11-07T05:00:25.227Z,5.80
2023-11-07T05:10:26.900Z,10.40
2023-11-07T05:20:29.006Z,5.70
2023-11-07T05:30:31.949Z,6.00
2023-11-07T05:40:33.637Z,5.20
2023-11-07T05:50:35.495Z,5.20
2023-11-07T06:00:37.458Z,8.20
2023-11-07T06:10:39.132Z,6.90
2023-11-07T06:20:41.017Z,4.00
2023-11-07T06:30:43.774Z,5.90
2023-11-07T06:40:45.510Z,6.00
2023-11-07T06:50:47.565Z,7.90
2023-11-07T07:00:49.312Z,7.30
2023-11-07T07:10:54.051Z,6.40
2023-11-07T07:20:56.470Z,5.40
2023-11-07T07:31:01.071Z,5.60
2023-11-07T07:41:03.345Z,5.90
2023-11-07T07:51:07.766Z,6.10
2023-11-07T08:01:11.114Z,6.20
2023-11-07T08:11:14.489Z,5.20
2023-11-07T08:21:16.384Z,5.60
2023-11-07T08:31:18.138Z,5.30
2023-11-07T08:41:19.888Z,5.50
2023-11-07T08:51:21.785Z,4.10
2023-11-07T09:01:24.868Z,5.70
2023-11-07T09:11:26.561Z,21.80
2023-11-07T09:21:28.626Z,45.30
2023-11-07T09:31:30.294Z,29.60
2023-11-07T09:41:31.960Z,64.60
2023-11-07T09:51:37.079Z,25.40
2023-11-07T10:01:39.163Z,26.90
2023-11-07T10:11:51.224Z,11.00
2023-11-07T10:21:53.532Z,17.40
2023-11-07T10:32:11.317Z,8.80
2023-11-07T10:42:20.664Z,10.80
2023-11-07T10:52:22.678Z,5.90
2023-11-07T11:02:27.229Z,5.00
2023-11-07T11:12:29.494Z,5.90
2023-11-07T11:22:44.516Z,9.60
2023-11-07T11:33:06.511Z,3.90
2023-11-07T11:43:08.372Z,7.40
2023-11-07T11:53:10.526Z,12.00
2023-11-07T12:03:17.780Z,9.30
2023-11-07T12:13:24.366Z,13.40
2023-11-07T12:23:27.564Z,10.50
2023-11-07T12:33:41.229Z,5.20
2023-11-07T12:43:45.724Z,6.50
2023-11-07T12:53:50.142Z,4.50
2023-11-07T13:03:51.954Z,6.50
2023-11-07T13:13:53.718Z,7.00
2023-11-07T13:23:55.435Z,10.80
2023-11-07T13:33:57.307Z,3.30
2023-11-07T13:43:59.698Z,4.80
2023-11-07T13:54:01.535Z,2.80
2023-11-07T14:04:03.693Z,4.00
2023-11-07T14:14:06.363Z,4.70
2023-11-07T14:24:08.953Z,3.70
2023-11-07T14:34:11.539Z,5.50
2023-11-07T14:44:13.957Z,6.30
2023-11-07T14:54:15.849Z,6.50
2023-11-07T15:04:18.032Z,5.10
2023-11-07T15:14:19.764Z,4.80
2023-11-07T15:24:21.613Z,6.00
2023-11-07T15:34:23.470Z,6.10
2023-11-07T15:44:25.132Z,4.60
2023-11-07T15:54:27.213Z,5.40
2023-11-07T16:04:29.488Z,6.70
2023-11-07T16:14:33.391Z,8.30
2023-11-07T16:24:35.141Z,8.80
2023-11-07T16:34:37.152Z,6.30
2023-11-07T16:44:41.089Z,5.60
2023-11-07T16:54:43.136Z,5.30
2023-11-07T17:04:45.952Z,7.40
2023-11-07T17:14:47.702Z,8.40
2023-11-07T17:24:49.444Z,7.40
2023-11-07T17:34:55.348Z,9.00
2023-11-07T17:44:57.529Z,8.70
2023-11-07T17:54:59.357Z,11.20
2023-11-07T18:05:01.226Z,10.90
2023-11-07T18:15:05.260Z,10.00
2023-11-07T18:25:07.489Z,11.90
2023-11-07T18:35:09.551Z,11.00
2023-11-07T18:45:11.934Z,12.40
2023-11-07T18:55:14.149Z,11.80
2023-11-07T19:05:16.521Z,10.40
2023-11-07T19:15:18.251Z,12.50
2023-11-07T19:25:20.724Z,13.40
2023-11-07T19:35:22.517Z,10.50
2023-11-07T19:45:24.275Z,13.30
2023-11-07T19:55:28.225Z,11.30
2023-11-07T20:05:29.938Z,13.00
2023-11-07T20:15:31.688Z,12.50
2023-11-07T20:25:33.501Z,10.30
2023-11-07T20:35:40.218Z,8.40
2023-11-07T20:45:41.963Z,10.20
2023-11-07T20:55:43.678Z,9.30
2023-11-07T21:05:45.816Z,10.10
2023-11-07T21:15:47.496Z,11.10
2023-11-07T21:25:49.272Z,10.80
2023-11-07T21:35:50.979Z,11.40
2023-11-07T21:45:53.249Z,9.50
2023-11-07T21:55:56.112Z,13.20
2023-11-07T22:05:59.779Z,7.80
2023-11-07T22:16:01.484Z,7.70
2023-11-07T22:26:03.318Z,10.10
2023-11-07T22:36:06.833Z,9.80
2023-11-07T22:46:08.741Z,8.70
2023-11-07T22:56:10.622Z,8.80
2023-11-07T23:06:12.361Z,6.40
2023-11-07T23:16:14.144Z,7.50
2023-11-07T23:26:16.231Z,9.40
2023-11-07T23:36:18.836Z,8.90
2023-11-07T23:46:20.618Z,7.20
2023-11-07T23:56:23.080Z,6.80
